sensor_id;sensor_type;location;lat;lon;timestamp;temperature;humidity
20528;DHT22;23612;50.894;10.700;2022-12-20T00:01:29;6.40;99.90
20528;DHT22;23612;50.894;10.700;2022-12-20T00:03:57;6.40;99.90
20528;DHT22;23612;50.894;10.700;2022-12-20T00:06:24;6.40;99.90
20528;DHT22;23612;50.894;10.700;2022-12-20T00:08:58;6.40;99.90
20528;DHT22;23612;50.894;10.700;2022-12-20T00:11:24;6.50;99.90
20528;DHT22;23612;50.894;10.700;2022-12-20T00:13:51;6.60;99.90
20528;DHT22;23612;50.894;10.700;2022-12-20T00:16:19;6.70;99.90
20528;DHT22;23612;50.894;10.700;2022-12-20T00:18:46;6.70;99.90
20528;DHT22;23612;50.894;10.700;2022-12-20T00:21:13;6.80;99.90
20528;DHT22;23612;50.894;10.700;2022-12-20T00:23:39;6.90;99.90
20528;DHT22;23612;50.894;10.700;2022-12-20T00:26:10;7.00;99.90
20528;DHT22;23612;50.894;10.700;2022-12-20T00:28:37;7.00;99.90
20528;DHT22;23612;50.894;10.700;2022-12-20T00:31:04;6.90;99.90
20528;DHT22;23612;50.894;10.700;2022-12-20T00:33:31;6.90;99.90
20528;DHT22;23612;50.894;10.700;2022-12-20T00:35:56;6.80;99.90
20528;DHT22;23612;50.894;10.700;2022-12-20T00:38:23;6.70;99.90
20528;DHT22;23612;50.894;10.700;2022-12-20T00:41:19;6.70;99.90
20528;DHT22;23612;50.894;10.700;2022-12-20T00:43:46;6.60;99.90
20528;DHT22;23612;50.894;10.700;2022-12-20T00:46:13;6.60;99.90
20528;DHT22;23612;50.894;10.700;2022-12-20T00:48:39;6.50;99.90
20528;DHT22;23612;50.894;10.700;2022-12-20T00:51:14;6.50;99.90
20528;DHT22;23612;50.894;10.700;2022-12-20T00:53:41;6.60;99.90
20528;DHT22;23612;50.894;10.700;2022-12-20T00:56:07;6.60;99.90
20528;DHT22;23612;50.894;10.700;2022-12-20T00:58:35;6.60;99.90
20528;DHT22;23612;50.894;10.700;2022-12-20T01:01:01;6.60;99.90
20528;DHT22;23612;50.894;10.700;2022-12-20T01:03:28;6.70;99.90
20528;DHT22;23612;50.894;10.700;2022-12-20T01:05:56;6.60;99.90
20528;DHT22;23612;50.894;10.700;2022-12-20T01:08:23;6.60;99.90
20528;DHT22;23612;50.894;10.700;2022-12-20T01:11:06;6.60;99.90
20528;DHT22;23612;50.894;10.700;2022-12-20T01:13:34;6.70;99.90
20528;DHT22;23612;50.894;10.700;2022-12-20T01:16:08;6.70;99.90
20528;DHT22;23612;50.894;10.700;2022-12-20T01:18:34;6.70;99.90
20528;DHT22;23612;50.894;10.700;2022-12-20T01:21:08;6.70;99.90
20528;DHT22;23612;50.894;10.700;2022-12-20T01:23:34;6.80;99.90
20528;DHT22;23612;50.894;10.700;2022-12-20T01:26:01;6.80;99.90
20528;DHT22;23612;50.894;10.700;2022-12-20T01:28:30;6.80;99.90
20528;DHT22;23612;50.894;10.700;2022-12-20T01:30:56;6.90;99.90
20528;DHT22;23612;50.894;10.700;2022-12-20T01:33:22;6.90;99.90
20528;DHT22;23612;50.894;10.700;2022-12-20T01:35:59;6.90;99.90
20528;DHT22;23612;50.894;10.700;2022-12-20T01:38:25;7.00;99.90
20528;DHT22;23612;50.894;10.700;2022-12-20T01:40:52;7.00;99.90
20528;DHT22;23612;50.894;10.700;2022-12-20T01:43:18;7.00;99.90
20528;DHT22;23612;50.894;10.700;2022-12-20T01:45:44;7.00;99.90
20528;DHT22;23612;50.894;10.700;2022-12-20T01:48:12;7.00;99.90
20528;DHT22;23612;50.894;10.700;2022-12-20T01:50:38;7.00;99.90
20528;DHT22;23612;50.894;10.700;2022-12-20T01:53:04;7.00;99.90
20528;DHT22;23612;50.894;10.700;2022-12-20T01:55:31;7.10;99.90
20528;DHT22;23612;50.894;10.700;2022-12-20T01:58:03;7.10;99.90
20528;DHT22;23612;50.894;10.700;2022-12-20T02:00:30;7.00;99.90
20528;DHT22;23612;50.894;10.700;2022-12-20T02:02:59;7.00;99.90
20528;DHT22;23612;50.894;10.700;2022-12-20T02:05:26;7.00;99.90
20528;DHT22;23612;50.894;10.700;2022-12-20T02:07:53;7.10;99.90
20528;DHT22;23612;50.894;10.700;2022-12-20T02:10:22;7.10;99.90
20528;DHT22;23612;50.894;10.700;2022-12-20T02:12:50;7.00;99.90
20528;DHT22;23612;50.894;10.700;2022-12-20T02:15:41;7.10;99.90
20528;DHT22;23612;50.894;10.700;2022-12-20T02:18:19;7.10;99.90
20528;DHT22;23612;50.894;10.700;2022-12-20T02:21:11;7.10;99.90
20528;DHT22;23612;50.894;10.700;2022-12-20T02:31:49;6.90;99.90
20528;DHT22;23612;50.894;10.700;2022-12-20T02:34:17;6.90;99.90
20528;DHT22;23612;50.894;10.700;2022-12-20T02:36:45;7.00;99.90
20528;DHT22;23612;50.894;10.700;2022-12-20T02:39:14;7.00;99.90
20528;DHT22;23612;50.894;10.700;2022-12-20T02:42:25;7.00;99.90
20528;DHT22;23612;50.894;10.700;2022-12-20T02:44:34;7.00;99.90
20528;DHT22;23612;50.894;10.700;2022-12-20T02:47:27;6.90;99.90
20528;DHT22;23612;50.894;10.700;2022-12-20T02:49:55;6.90;99.90
20528;DHT22;23612;50.894;10.700;2022-12-20T02:52:23;6.80;99.90
20528;DHT22;23612;50.894;10.700;2022-12-20T02:54:52;6.80;99.90
20528;DHT22;23612;50.894;10.700;2022-12-20T02:57:24;6.90;99.90
20528;DHT22;23612;50.894;10.700;2022-12-20T02:59:55;6.80;99.90
20528;DHT22;23612;50.894;10.700;2022-12-20T03:02:23;6.80;99.90
20528;DHT22;23612;50.894;10.700;2022-12-20T03:04:49;6.90;99.90
20528;DHT22;23612;50.894;10.700;2022-12-20T03:07:15;6.80;99.90
20528;DHT22;23612;50.894;10.700;2022-12-20T03:09:43;7.00;99.90
20528;DHT22;23612;50.894;10.700;2022-12-20T03:12:11;7.10;99.90
20528;DHT22;23612;50.894;10.700;2022-12-20T03:14:37;7.20;99.90
20528;DHT22;23612;50.894;10.700;2022-12-20T03:17:03;7.20;99.90
20528;DHT22;23612;50.894;10.700;2022-12-20T03:19:29;7.30;99.90
20528;DHT22;23612;50.894;10.700;2022-12-20T03:21:55;7.30;99.90
20528;DHT22;23612;50.894;10.700;2022-12-20T03:24:21;7.30;99.90
20528;DHT22;23612;50.894;10.700;2022-12-20T03:26:46;7.40;99.90
20528;DHT22;23612;50.894;10.700;2022-12-20T03:29:12;7.50;99.90
20528;DHT22;23612;50.894;10.700;2022-12-20T03:31:38;7.60;99.90
20528;DHT22;23612;50.894;10.700;2022-12-20T03:34:04;7.60;99.90
20528;DHT22;23612;50.894;10.700;2022-12-20T03:36:29;7.70;99.90
20528;DHT22;23612;50.894;10.700;2022-12-20T03:38:55;7.70;99.90
20528;DHT22;23612;50.894;10.700;2022-12-20T03:41:22;7.70;99.90
20528;DHT22;23612;50.894;10.700;2022-12-20T03:43:48;7.70;99.90
20528;DHT22;23612;50.894;10.700;2022-12-20T03:46:14;7.80;99.90
20528;DHT22;23612;50.894;10.700;2022-12-20T03:48:40;7.90;99.90
20528;DHT22;23612;50.894;10.700;2022-12-20T03:51:06;7.80;99.90
20528;DHT22;23612;50.894;10.700;2022-12-20T03:53:31;7.90;99.90
20528;DHT22;23612;50.894;10.700;2022-12-20T03:55:57;8.00;99.90
20528;DHT22;23612;50.894;10.700;2022-12-20T03:58:23;8.10;99.90
20528;DHT22;23612;50.894;10.700;2022-12-20T04:00:48;8.10;99.90
20528;DHT22;23612;50.894;10.700;2022-12-20T04:03:14;8.10;99.90
20528;DHT22;23612;50.894;10.700;2022-12-20T04:05:40;8.20;99.90
20528;DHT22;23612;50.894;10.700;2022-12-20T04:08:05;8.20;99.90
20528;DHT22;23612;50.894;10.700;2022-12-20T04:10:31;8.30;99.90
20528;DHT22;23612;50.894;10.700;2022-12-20T04:12:56;8.20;99.90
20528;DHT22;23612;50.894;10.700;2022-12-20T04:15:22;8.30;99.90
20528;DHT22;23612;50.894;10.700;2022-12-20T04:17:47;8.30;99.90
20528;DHT22;23612;50.894;10.700;2022-12-20T04:20:14;8.30;99.90
20528;DHT22;23612;50.894;10.700;2022-12-20T04:22:50;8.30;99.90
20528;DHT22;23612;50.894;10.700;2022-12-20T04:25:17;8.30;99.90
20528;DHT22;23612;50.894;10.700;2022-12-20T04:27:43;8.30;99.90
20528;DHT22;23612;50.894;10.700;2022-12-20T04:30:09;8.30;99.90
20528;DHT22;23612;50.894;10.700;2022-12-20T04:32:35;8.30;99.90
20528;DHT22;23612;50.894;10.700;2022-12-20T04:35:01;8.30;99.90
20528;DHT22;23612;50.894;10.700;2022-12-20T04:37:28;8.30;99.90
20528;DHT22;23612;50.894;10.700;2022-12-20T04:39:54;8.30;99.90
20528;DHT22;23612;50.894;10.700;2022-12-20T04:42:21;8.30;99.90
20528;DHT22;23612;50.894;10.700;2022-12-20T04:44:46;8.20;99.90
20528;DHT22;23612;50.894;10.700;2022-12-20T04:47:12;8.20;99.90
20528;DHT22;23612;50.894;10.700;2022-12-20T04:49:37;8.20;99.90
20528;DHT22;23612;50.894;10.700;2022-12-20T04:52:03;8.10;99.90
20528;DHT22;23612;50.894;10.700;2022-12-20T04:54:47;8.10;99.90
20528;DHT22;23612;50.894;10.700;2022-12-20T04:57:13;8.00;99.90
20528;DHT22;23612;50.894;10.700;2022-12-20T04:59:38;8.00;99.90
20528;DHT22;23612;50.894;10.700;2022-12-20T05:02:04;8.00;99.90
20528;DHT22;23612;50.894;10.700;2022-12-20T05:04:29;7.90;99.90
20528;DHT22;23612;50.894;10.700;2022-12-20T05:06:55;8.00;99.90
20528;DHT22;23612;50.894;10.700;2022-12-20T05:09:21;8.00;99.90
20528;DHT22;23612;50.894;10.700;2022-12-20T05:11:46;7.90;99.90
20528;DHT22;23612;50.894;10.700;2022-12-20T05:14:12;7.90;99.90
20528;DHT22;23612;50.894;10.700;2022-12-20T05:16:37;7.80;99.90
20528;DHT22;23612;50.894;10.700;2022-12-20T05:19:03;7.80;99.90
20528;DHT22;23612;50.894;10.700;2022-12-20T05:21:29;7.70;99.90
20528;DHT22;23612;50.894;10.700;2022-12-20T05:24:14;7.60;99.90
20528;DHT22;23612;50.894;10.700;2022-12-20T05:26:58;7.60;99.90
20528;DHT22;23612;50.894;10.700;2022-12-20T05:29:23;7.70;99.90
20528;DHT22;23612;50.894;10.700;2022-12-20T05:31:49;7.70;99.90
20528;DHT22;23612;50.894;10.700;2022-12-20T05:34:15;7.80;99.90
20528;DHT22;23612;50.894;10.700;2022-12-20T05:36:40;7.80;99.90
20528;DHT22;23612;50.894;10.700;2022-12-20T05:39:06;7.80;99.90
20528;DHT22;23612;50.894;10.700;2022-12-20T05:41:31;7.80;99.90
20528;DHT22;23612;50.894;10.700;2022-12-20T05:43:57;7.80;99.90
20528;DHT22;23612;50.894;10.700;2022-12-20T05:46:23;7.80;99.90
20528;DHT22;23612;50.894;10.700;2022-12-20T05:48:48;7.90;99.90
20528;DHT22;23612;50.894;10.700;2022-12-20T05:51:14;7.90;99.90
20528;DHT22;23612;50.894;10.700;2022-12-20T05:53:39;8.00;99.90
20528;DHT22;23612;50.894;10.700;2022-12-20T05:56:05;7.90;99.90
20528;DHT22;23612;50.894;10.700;2022-12-20T05:58:31;8.00;99.90
20528;DHT22;23612;50.894;10.700;2022-12-20T06:01:02;8.00;99.90
20528;DHT22;23612;50.894;10.700;2022-12-20T06:03:29;8.00;99.90
20528;DHT22;23612;50.894;10.700;2022-12-20T06:05:55;8.00;99.90
20528;DHT22;23612;50.894;10.700;2022-12-20T06:08:21;8.00;99.90
20528;DHT22;23612;50.894;10.700;2022-12-20T06:10:48;8.00;99.90
20528;DHT22;23612;50.894;10.700;2022-12-20T06:13:14;8.00;99.90
20528;DHT22;23612;50.894;10.700;2022-12-20T06:15:39;7.90;99.90
20528;DHT22;23612;50.894;10.700;2022-12-20T06:18:06;7.90;99.90
20528;DHT22;23612;50.894;10.700;2022-12-20T06:20:33;7.90;99.90
20528;DHT22;23612;50.894;10.700;2022-12-20T06:22:58;7.90;99.90
20528;DHT22;23612;50.894;10.700;2022-12-20T06:25:24;7.90;99.90
20528;DHT22;23612;50.894;10.700;2022-12-20T06:27:50;7.90;99.90
20528;DHT22;23612;50.894;10.700;2022-12-20T06:30:16;7.90;99.90
20528;DHT22;23612;50.894;10.700;2022-12-20T06:35:16;7.90;99.90
20528;DHT22;23612;50.894;10.700;2022-12-20T06:37:42;8.00;99.90
20528;DHT22;23612;50.894;10.700;2022-12-20T06:40:09;8.00;99.90
20528;DHT22;23612;50.894;10.700;2022-12-20T06:42:34;8.00;99.90
20528;DHT22;23612;50.894;10.700;2022-12-20T06:45:00;7.90;99.90
20528;DHT22;23612;50.894;10.700;2022-12-20T06:47:26;8.00;99.90
20528;DHT22;23612;50.894;10.700;2022-12-20T06:49:51;8.00;99.90
20528;DHT22;23612;50.894;10.700;2022-12-20T06:52:17;8.00;99.90
20528;DHT22;23612;50.894;10.700;2022-12-20T06:54:42;8.00;99.90
20528;DHT22;23612;50.894;10.700;2022-12-20T06:57:08;7.90;99.90
20528;DHT22;23612;50.894;10.700;2022-12-20T06:59:33;7.90;99.90
20528;DHT22;23612;50.894;10.700;2022-12-20T07:01:59;8.00;99.90
20528;DHT22;23612;50.894;10.700;2022-12-20T07:04:25;8.00;99.90
20528;DHT22;23612;50.894;10.700;2022-12-20T07:06:50;7.90;99.90
20528;DHT22;23612;50.894;10.700;2022-12-20T07:09:16;8.00;99.90
20528;DHT22;23612;50.894;10.700;2022-12-20T07:11:41;8.00;99.90
20528;DHT22;23612;50.894;10.700;2022-12-20T07:14:07;8.00;99.90
20528;DHT22;23612;50.894;10.700;2022-12-20T07:16:34;8.00;99.90
20528;DHT22;23612;50.894;10.700;2022-12-20T07:19:00;8.10;99.90
20528;DHT22;23612;50.894;10.700;2022-12-20T07:21:26;8.20;99.90
20528;DHT22;23612;50.894;10.700;2022-12-20T07:23:51;8.30;99.90
20528;DHT22;23612;50.894;10.700;2022-12-20T07:26:18;8.30;99.90
20528;DHT22;23612;50.894;10.700;2022-12-20T07:28:44;8.30;99.90
20528;DHT22;23612;50.894;10.700;2022-12-20T07:31:10;8.40;99.90
20528;DHT22;23612;50.894;10.700;2022-12-20T07:33:36;8.40;99.90
20528;DHT22;23612;50.894;10.700;2022-12-20T07:36:09;8.40;99.90
20528;DHT22;23612;50.894;10.700;2022-12-20T07:38:36;8.40;99.90
20528;DHT22;23612;50.894;10.700;2022-12-20T07:41:15;8.40;99.90
20528;DHT22;23612;50.894;10.700;2022-12-20T07:43:41;8.40;99.90
20528;DHT22;23612;50.894;10.700;2022-12-20T07:46:08;8.50;99.90
20528;DHT22;23612;50.894;10.700;2022-12-20T07:48:36;8.50;99.90
20528;DHT22;23612;50.894;10.700;2022-12-20T07:51:05;8.40;99.90
20528;DHT22;23612;50.894;10.700;2022-12-20T07:53:34;8.40;99.90
20528;DHT22;23612;50.894;10.700;2022-12-20T07:56:01;8.40;99.90
20528;DHT22;23612;50.894;10.700;2022-12-20T07:58:28;8.40;99.90
20528;DHT22;23612;50.894;10.700;2022-12-20T08:00:55;8.40;99.90
20528;DHT22;23612;50.894;10.700;2022-12-20T08:03:23;8.50;99.90
20528;DHT22;23612;50.894;10.700;2022-12-20T08:05:53;8.50;99.90
20528;DHT22;23612;50.894;10.700;2022-12-20T08:08:20;8.60;99.90
20528;DHT22;23612;50.894;10.700;2022-12-20T08:10:47;8.60;99.90
20528;DHT22;23612;50.894;10.700;2022-12-20T08:13:13;8.70;99.90
20528;DHT22;23612;50.894;10.700;2022-12-20T08:15:39;8.70;99.90
20528;DHT22;23612;50.894;10.700;2022-12-20T08:18:05;9.00;99.90
20528;DHT22;23612;50.894;10.700;2022-12-20T08:20:31;9.10;99.90
20528;DHT22;23612;50.894;10.700;2022-12-20T08:22:57;9.20;99.90
20528;DHT22;23612;50.894;10.700;2022-12-20T08:25:22;9.10;99.90
20528;DHT22;23612;50.894;10.700;2022-12-20T08:27:48;9.00;99.90
20528;DHT22;23612;50.894;10.700;2022-12-20T08:30:14;9.00;99.90
20528;DHT22;23612;50.894;10.700;2022-12-20T08:32:40;8.90;99.90
20528;DHT22;23612;50.894;10.700;2022-12-20T08:35:06;8.80;99.90
20528;DHT22;23612;50.894;10.700;2022-12-20T08:37:32;8.80;99.90
20528;DHT22;23612;50.894;10.700;2022-12-20T08:39:58;8.70;99.90
20528;DHT22;23612;50.894;10.700;2022-12-20T08:42:25;8.70;99.90
20528;DHT22;23612;50.894;10.700;2022-12-20T08:44:51;8.70;99.90
20528;DHT22;23612;50.894;10.700;2022-12-20T08:47:16;8.70;99.90
20528;DHT22;23612;50.894;10.700;2022-12-20T08:49:42;8.70;99.90
20528;DHT22;23612;50.894;10.700;2022-12-20T08:52:08;8.80;99.90
20528;DHT22;23612;50.894;10.700;2022-12-20T08:54:33;8.90;99.90
20528;DHT22;23612;50.894;10.700;2022-12-20T08:56:59;8.90;99.90
20528;DHT22;23612;50.894;10.700;2022-12-20T08:59:24;8.80;99.90
20528;DHT22;23612;50.894;10.700;2022-12-20T09:01:51;8.80;99.90
20528;DHT22;23612;50.894;10.700;2022-12-20T09:04:17;8.70;99.90
20528;DHT22;23612;50.894;10.700;2022-12-20T09:06:43;8.70;99.90
20528;DHT22;23612;50.894;10.700;2022-12-20T09:09:08;8.70;99.90
20528;DHT22;23612;50.894;10.700;2022-12-20T09:11:34;8.60;99.90
20528;DHT22;23612;50.894;10.700;2022-12-20T09:14:00;8.60;99.90
20528;DHT22;23612;50.894;10.700;2022-12-20T09:16:29;8.40;99.90
20528;DHT22;23612;50.894;10.700;2022-12-20T09:18:56;8.30;99.90
20528;DHT22;23612;50.894;10.700;2022-12-20T09:21:22;8.10;99.90
20528;DHT22;23612;50.894;10.700;2022-12-20T09:23:52;8.10;99.90
20528;DHT22;23612;50.894;10.700;2022-12-20T09:26:19;8.10;99.90
20528;DHT22;23612;50.894;10.700;2022-12-20T09:28:45;8.10;99.90
20528;DHT22;23612;50.894;10.700;2022-12-20T09:31:17;8.10;99.90
20528;DHT22;23612;50.894;10.700;2022-12-20T09:33:43;8.10;99.90
20528;DHT22;23612;50.894;10.700;2022-12-20T09:36:14;8.20;99.90
20528;DHT22;23612;50.894;10.700;2022-12-20T09:38:40;8.30;99.90
20528;DHT22;23612;50.894;10.700;2022-12-20T09:41:07;8.30;99.90
20528;DHT22;23612;50.894;10.700;2022-12-20T09:43:34;8.40;99.90
20528;DHT22;23612;50.894;10.700;2022-12-20T09:46:02;8.60;99.90
20528;DHT22;23612;50.894;10.700;2022-12-20T09:48:37;8.70;99.90
20528;DHT22;23612;50.894;10.700;2022-12-20T09:51:27;8.70;99.90
20528;DHT22;23612;50.894;10.700;2022-12-20T09:56:34;8.90;99.90
20528;DHT22;23612;50.894;10.700;2022-12-20T09:59:03;9.00;99.90
20528;DHT22;23612;50.894;10.700;2022-12-20T10:01:32;9.10;99.90
20528;DHT22;23612;50.894;10.700;2022-12-20T10:04:01;9.20;99.90
20528;DHT22;23612;50.894;10.700;2022-12-20T10:09:58;9.40;99.90
20528;DHT22;23612;50.894;10.700;2022-12-20T10:20:45;9.80;99.90
20528;DHT22;23612;50.894;10.700;2022-12-20T10:23:21;9.90;99.90
20528;DHT22;23612;50.894;10.700;2022-12-20T10:25:52;9.90;99.90
20528;DHT22;23612;50.894;10.700;2022-12-20T10:28:20;9.90;99.90
20528;DHT22;23612;50.894;10.700;2022-12-20T10:30:49;9.90;99.90
20528;DHT22;23612;50.894;10.700;2022-12-20T10:33:19;9.90;99.90
20528;DHT22;23612;50.894;10.700;2022-12-20T10:35:45;9.90;99.90
20528;DHT22;23612;50.894;10.700;2022-12-20T10:38:13;9.80;99.90
20528;DHT22;23612;50.894;10.700;2022-12-20T10:40:44;9.80;99.90
20528;DHT22;23612;50.894;10.700;2022-12-20T10:43:21;9.70;99.90
20528;DHT22;23612;50.894;10.700;2022-12-20T10:46:13;9.70;99.90
20528;DHT22;23612;50.894;10.700;2022-12-20T10:48:44;9.70;99.90
20528;DHT22;23612;50.894;10.700;2022-12-20T10:54:01;9.80;99.90
20528;DHT22;23612;50.894;10.700;2022-12-20T10:56:29;9.90;99.90
20528;DHT22;23612;50.894;10.700;2022-12-20T11:01:47;9.90;99.90
20528;DHT22;23612;50.894;10.700;2022-12-20T11:04:34;9.80;99.90
20528;DHT22;23612;50.894;10.700;2022-12-20T11:07:22;9.70;99.90
20528;DHT22;23612;50.894;10.700;2022-12-20T11:09:55;9.70;99.90
20528;DHT22;23612;50.894;10.700;2022-12-20T11:12:21;9.70;99.90
20528;DHT22;23612;50.894;10.700;2022-12-20T11:14:47;9.70;99.90
20528;DHT22;23612;50.894;10.700;2022-12-20T11:30:42;9.70;99.90
20528;DHT22;23612;50.894;10.700;2022-12-20T11:35:41;9.70;99.90
20528;DHT22;23612;50.894;10.700;2022-12-20T11:41:20;9.80;99.90
20528;DHT22;23612;50.894;10.700;2022-12-20T11:52:31;9.60;99.90
20528;DHT22;23612;50.894;10.700;2022-12-20T11:57:59;9.40;99.90
20528;DHT22;23612;50.894;10.700;2022-12-20T12:00:26;9.30;99.90
20528;DHT22;23612;50.894;10.700;2022-12-20T12:02:58;9.30;99.90
20528;DHT22;23612;50.894;10.700;2022-12-20T12:05:31;9.20;99.90
20528;DHT22;23612;50.894;10.700;2022-12-20T12:08:02;9.20;99.90
20528;DHT22;23612;50.894;10.700;2022-12-20T12:10:40;9.20;99.90
20528;DHT22;23612;50.894;10.700;2022-12-20T12:13:14;9.20;99.90
20528;DHT22;23612;50.894;10.700;2022-12-20T12:15:50;9.20;99.90
20528;DHT22;23612;50.894;10.700;2022-12-20T12:18:26;9.20;99.90
20528;DHT22;23612;50.894;10.700;2022-12-20T12:21:04;9.30;99.90
20528;DHT22;23612;50.894;10.700;2022-12-20T12:26:31;9.30;99.90
20528;DHT22;23612;50.894;10.700;2022-12-20T12:28:59;9.20;99.90
20528;DHT22;23612;50.894;10.700;2022-12-20T12:34:49;9.10;99.90
20528;DHT22;23612;50.894;10.700;2022-12-20T12:45:27;9.00;99.90
20528;DHT22;23612;50.894;10.700;2022-12-20T12:48:04;9.00;99.90
20528;DHT22;23612;50.894;10.700;2022-12-20T12:50:35;9.10;99.90
20528;DHT22;23612;50.894;10.700;2022-12-20T12:53:18;9.10;99.90
20528;DHT22;23612;50.894;10.700;2022-12-20T12:58:30;8.90;99.90
20528;DHT22;23612;50.894;10.700;2022-12-20T13:01:07;8.90;99.90
20528;DHT22;23612;50.894;10.700;2022-12-20T13:04:07;8.80;99.90
20528;DHT22;23612;50.894;10.700;2022-12-20T13:11:29;8.80;99.90
20528;DHT22;23612;50.894;10.700;2022-12-20T13:16:50;8.70;99.90
20528;DHT22;23612;50.894;10.700;2022-12-20T13:19:33;8.70;99.90
20528;DHT22;23612;50.894;10.700;2022-12-20T13:27:38;8.70;99.90
20528;DHT22;23612;50.894;10.700;2022-12-20T13:32:55;8.70;99.90
20528;DHT22;23612;50.894;10.700;2022-12-20T13:40:47;8.60;99.90
20528;DHT22;23612;50.894;10.700;2022-12-20T13:43:25;8.70;99.90
20528;DHT22;23612;50.894;10.700;2022-12-20T13:49:00;8.70;99.90
20528;DHT22;23612;50.894;10.700;2022-12-20T13:51:30;8.70;99.90
20528;DHT22;23612;50.894;10.700;2022-12-20T13:54:00;8.60;99.90
20528;DHT22;23612;50.894;10.700;2022-12-20T13:59:02;8.70;99.90
20528;DHT22;23612;50.894;10.700;2022-12-20T14:01:28;8.60;99.90
20528;DHT22;23612;50.894;10.700;2022-12-20T14:03:55;8.60;99.90
20528;DHT22;23612;50.894;10.700;2022-12-20T14:06:24;8.70;99.90
20528;DHT22;23612;50.894;10.700;2022-12-20T14:08:51;8.80;99.90
20528;DHT22;23612;50.894;10.700;2022-12-20T14:11:18;8.90;99.90
20528;DHT22;23612;50.894;10.700;2022-12-20T14:16:21;9.00;99.90
20528;DHT22;23612;50.894;10.700;2022-12-20T14:18:49;9.00;99.90
20528;DHT22;23612;50.894;10.700;2022-12-20T14:21:15;9.00;99.90
20528;DHT22;23612;50.894;10.700;2022-12-20T14:23:49;9.00;99.90
20528;DHT22;23612;50.894;10.700;2022-12-20T14:26:27;9.00;99.90
20528;DHT22;23612;50.894;10.700;2022-12-20T14:28:55;9.00;99.90
20528;DHT22;23612;50.894;10.700;2022-12-20T14:31:28;8.90;99.90
20528;DHT22;23612;50.894;10.700;2022-12-20T14:36:26;9.00;99.90
20528;DHT22;23612;50.894;10.700;2022-12-20T14:38:52;9.00;99.90
20528;DHT22;23612;50.894;10.700;2022-12-20T14:41:45;8.90;99.90
20528;DHT22;23612;50.894;10.700;2022-12-20T14:44:20;8.80;99.90
20528;DHT22;23612;50.894;10.700;2022-12-20T14:46:51;8.70;99.90
20528;DHT22;23612;50.894;10.700;2022-12-20T14:49:26;8.70;99.90
20528;DHT22;23612;50.894;10.700;2022-12-20T14:55:28;8.60;99.90
20528;DHT22;23612;50.894;10.700;2022-12-20T14:57:50;8.60;99.90
20528;DHT22;23612;50.894;10.700;2022-12-20T15:00:31;8.60;99.90
20528;DHT22;23612;50.894;10.700;2022-12-20T15:03:02;8.60;99.90
20528;DHT22;23612;50.894;10.700;2022-12-20T15:08:23;8.70;99.90
20528;DHT22;23612;50.894;10.700;2022-12-20T15:13:36;8.60;99.90
20528;DHT22;23612;50.894;10.700;2022-12-20T15:16:04;8.60;99.90
20528;DHT22;23612;50.894;10.700;2022-12-20T15:18:30;8.60;99.90
20528;DHT22;23612;50.894;10.700;2022-12-20T15:21:15;8.60;99.90
20528;DHT22;23612;50.894;10.700;2022-12-20T15:23:51;8.70;99.90
20528;DHT22;23612;50.894;10.700;2022-12-20T15:26:21;8.70;99.90
20528;DHT22;23612;50.894;10.700;2022-12-20T15:28:47;8.70;99.90
20528;DHT22;23612;50.894;10.700;2022-12-20T15:31:15;8.80;99.90
20528;DHT22;23612;50.894;10.700;2022-12-20T15:33:42;8.80;99.90
20528;DHT22;23612;50.894;10.700;2022-12-20T15:36:15;8.80;99.90
20528;DHT22;23612;50.894;10.700;2022-12-20T15:38:41;8.80;99.90
20528;DHT22;23612;50.894;10.700;2022-12-20T15:41:13;8.90;99.90
20528;DHT22;23612;50.894;10.700;2022-12-20T15:43:42;8.90;99.90
20528;DHT22;23612;50.894;10.700;2022-12-20T15:46:07;9.00;99.90
20528;DHT22;23612;50.894;10.700;2022-12-20T15:48:33;9.00;99.90
20528;DHT22;23612;50.894;10.700;2022-12-20T15:50:58;9.00;99.90
20528;DHT22;23612;50.894;10.700;2022-12-20T15:53:31;9.00;99.90
20528;DHT22;23612;50.894;10.700;2022-12-20T15:55:58;9.00;99.90
20528;DHT22;23612;50.894;10.700;2022-12-20T15:58:24;9.00;99.90
20528;DHT22;23612;50.894;10.700;2022-12-20T16:00:53;9.00;99.90
20528;DHT22;23612;50.894;10.700;2022-12-20T16:03:22;9.00;99.90
20528;DHT22;23612;50.894;10.700;2022-12-20T16:05:48;9.10;99.90
20528;DHT22;23612;50.894;10.700;2022-12-20T16:08:15;9.00;99.90
20528;DHT22;23612;50.894;10.700;2022-12-20T16:10:46;9.00;99.90
20528;DHT22;23612;50.894;10.700;2022-12-20T16:13:19;9.10;99.90
20528;DHT22;23612;50.894;10.700;2022-12-20T16:15:45;9.10;99.90
20528;DHT22;23612;50.894;10.700;2022-12-20T16:18:10;9.10;99.90
20528;DHT22;23612;50.894;10.700;2022-12-20T16:20:36;9.10;99.90
20528;DHT22;23612;50.894;10.700;2022-12-20T16:23:02;9.00;99.90
20528;DHT22;23612;50.894;10.700;2022-12-20T16:25:31;9.00;99.90
20528;DHT22;23612;50.894;10.700;2022-12-20T16:27:57;8.90;99.90
20528;DHT22;23612;50.894;10.700;2022-12-20T16:30:23;9.00;99.90
20528;DHT22;23612;50.894;10.700;2022-12-20T16:32:50;9.00;99.90
20528;DHT22;23612;50.894;10.700;2022-12-20T16:37:52;8.90;99.90
20528;DHT22;23612;50.894;10.700;2022-12-20T16:40:17;8.90;99.90
20528;DHT22;23612;50.894;10.700;2022-12-20T16:42:43;8.80;99.90
20528;DHT22;23612;50.894;10.700;2022-12-20T16:45:16;8.70;99.90
20528;DHT22;23612;50.894;10.700;2022-12-20T16:47:44;8.70;99.90
20528;DHT22;23612;50.894;10.700;2022-12-20T16:50:09;8.80;99.90
20528;DHT22;23612;50.894;10.700;2022-12-20T16:52:35;8.80;99.90
20528;DHT22;23612;50.894;10.700;2022-12-20T16:55:02;8.80;99.90
20528;DHT22;23612;50.894;10.700;2022-12-20T16:57:28;8.80;99.90
20528;DHT22;23612;50.894;10.700;2022-12-20T16:59:54;8.80;99.90
20528;DHT22;23612;50.894;10.700;2022-12-20T17:02:28;8.80;99.90
20528;DHT22;23612;50.894;10.700;2022-12-20T17:04:54;8.80;99.90
20528;DHT22;23612;50.894;10.700;2022-12-20T17:07:20;8.80;99.90
20528;DHT22;23612;50.894;10.700;2022-12-20T17:09:46;8.60;99.90
20528;DHT22;23612;50.894;10.700;2022-12-20T17:12:19;8.60;99.90
20528;DHT22;23612;50.894;10.700;2022-12-20T17:14:45;8.60;99.90
20528;DHT22;23612;50.894;10.700;2022-12-20T17:17:12;8.60;99.90
20528;DHT22;23612;50.894;10.700;2022-12-20T17:19:37;8.50;99.90
20528;DHT22;23612;50.894;10.700;2022-12-20T17:22:04;8.50;99.90
20528;DHT22;23612;50.894;10.700;2022-12-20T17:24:30;8.40;99.90
20528;DHT22;23612;50.894;10.700;2022-12-20T17:26:55;8.40;99.90
20528;DHT22;23612;50.894;10.700;2022-12-20T17:29:21;8.30;99.90
20528;DHT22;23612;50.894;10.700;2022-12-20T17:31:47;8.30;99.90
20528;DHT22;23612;50.894;10.700;2022-12-20T17:34:21;8.30;99.90
20528;DHT22;23612;50.894;10.700;2022-12-20T17:36:48;8.30;99.90
20528;DHT22;23612;50.894;10.700;2022-12-20T17:39:14;8.40;99.90
20528;DHT22;23612;50.894;10.700;2022-12-20T17:41:41;8.40;99.90